Farmborough, Quebec

9:33 AM EST on January 17, 2017 (GMT -0500)
Rouyn-Noranda | | Change Station

Elev 988 ft 48.20 °N, 78.82 °W | Updated 33 minutes ago

Light Snow
Light Snow
23 °F
Feels Like 13 °F
N
9
Wind Variable Wind from ESE

Today
High -- | Low -- °F
--% Chance of Precip.
Yesterday
High -- | Low -- °F
Precip. -- in
Pressure 30.20 in
Visibility 15.0 miles
Clouds Overcast 2000 ft
Windchill 13 °F
Dew Point 19 °F
Humidity 86%
Rainfall 0.00 in
Snow Depth Not available.
7:59 AM 4:52 PM
Waning Gibbous, 72% visible
METAR CYUY 171400Z 12008KT 15SM -SN OVC020 M05/M07 A3014 RMK SC8 SLP227
Pressure 30.20 in
Visibility 15.0 miles
Clouds Overcast 2000 ft
Windchill 13 °F
Dew Point 19 °F
Humidity 86%
Rainfall 0.00 in
Snow Depth Not available.
7:59 AM 4:52 PM
Waning Gibbous, 72% visible
METAR CYUY 171400Z 12008KT 15SM -SN OVC020 M05/M07 A3014 RMK SC8 SLP227

Get Your Daily Forecast Email!

Thanks for signing up!

Be on the lookout for a verification email in your inbox.

You'll start receiving the daily forecast at 8 AM.

×

10-Day Weather Forecast

Almanac

Astronomy

Jan. 17, 2017 Rise Set
Actual Time
Civil Twilight
Nautical Twilight
Astronomical Twilight
Moon
Length of Visible Light
Length of Day
Tomorrow will be .
, % of the Moon is Illuminated

Today's Extremes

Country Highs Country Lows

Community

WunderPhotos

Upload Photos

1,962,540 photos uploaded!

WunderBlog® & News

Nearby

Air Quality

  Air Quality AQ Index Pollutant
Not available.

Snow Depth

Station Depth Elevation

Earthquake Activity

City Distance Mag. Time & Date
Minimum magnitude displayed is 2.5.

Coastal Water Temperatures

Place Temperature

Stations

Nearby Weather Stations

Station Location Temp. Windchill Dew Point Humidity Wind Precip. Elev Updated Type
                   

Watches & Warnings

There are currently no watches in effect.